Tiempo atmosférico en la estación meteorológica de Jabaloyas, Teruel (1430 m.)



Fecha
DESCASC
Temp. máxima en grados centígrados (hora)
DESCASC
Temp. mínima en grados centígrados (hora)
DESCASC
Temp. media en grados centígrados
DESCASC
Racha de viento máxima en m/sg (hora)
DESCASC
Velocidad máxima media en intervalos de 10 minutos(hora)
DESCASC
Precipitaciones diarias en mm
DESCASC
Precipitaciones de 00:00 a 06:00 en mm
DESCASC
Precipitaciones de 06:00 a 12:00 en mm
DESCASC
Precipitaciones de 12:00 a 18:00 en mm
DESCASC
Precipitaciones de 18:00 a 24:00 en mm
DESCASC
17-09-2020 20.4 (17:30) 14.1 (23:40) 17.3 10.56 (23:10) 6.39 (23:10) 1.4 0 0 0 1.4
15-09-2020 23.9 (15:20) 13.5 (08:00) 18.7 9.72 (07:00) 6.11 (07:10) 5.8 2.2 3.4 0.2 0
14-09-2020 23.9 (15:00) 14.4 (07:50) 19.1 11.67 (12:10) 6.67 (12:00) 0.2 0 0 0 0.2
13-09-2020 25.8 (16:00) 15.2 (00:00) 20.5 10.56 (22:00) 5.83 (17:10) 0 0 0 0 0
12-09-2020 25.7 (15:00) 15.6 (06:40) 20.7 9.72 (14:20) 5.83 (21:30) 0 0 0 0 0
11-09-2020 24.9 (17:30) 13.3 (00:00) 19.1 6.67 (22:10) 4.72 (22:30) 0 0 0 0 0
10-09-2020 21.9 (15:50) 10.8 (00:00) 16.3 8.33 (13:40) 4.72 (18:10) 0 0 0 0 0
09-09-2020 19.6 (14:40) 10.6 (07:10) 15.1 7.22 (10:10) 4.17 (14:50) 0 0 0 0 0
08-09-2020 19.8 (18:10) 6.2 (00:00) 13 8.33 (13:20) 4.72 (20:20) 0 0 0 0 0
07-09-2020 17.7 (16:40) 6.6 (06:50) 12.2 9.44 (13:40) 5.83 (11:50) 0 0 0 0 0
06-09-2020 24.2 (15:10) 14 (00:00) 19.1 9.72 (13:50) 5.28 (11:20) 0 0 0 0 0
05-09-2020 27.3 (16:50) 13.9 (00:00) 20.6 9.17 (19:20) 6.11 (19:40) 0 0 0 0 0
04-09-2020 25.6 (16:40) 12.6 (00:00) 19.1 8.61 (01:10) 5.83 (01:10) 0 0 0 0 0
03-09-2020 24.9 (17:00) 10.7 (00:00) 17.8 10.28 (15:40) 5.83 (18:30) 0 0 0 0 0
02-09-2020 22.6 (15:50) 9.5 (00:00) 16.1 8.89 (16:10) 4.17 (21:40) 0 0 0 0 0
01-09-2020 21.4 (16:10) 10.5 (00:00) 15.9 8.06 (04:40) 5.56 (04:50) 0 0 0 0 0
31-08-2020 22.4 (17:40) 5.9 (00:00) 14.1 8.06 (10:50) 4.72 (14:00) 0 0 0 0 0
30-08-2020 16.5 (17:10) 4.4 (00:00) 10.5 10.28 (03:00) 7.22 (02:40) 0 0 0 0 0
29-08-2020 17.7 (17:00) 8.7 (00:00) 13.2 12.5 (19:10) 8.89 (19:10) 0 0 0 0 0
28-08-2020 28.3 (14:30) 14.3 (00:00) 21.3 11.94 (18:40) 6.39 (18:00) 0 0 0 0 0
27-08-2020 31.5 (16:20) 19.9 (00:00) 25.7 10.28 (20:20) 6.39 (02:10) 0 0 0 0 0
26-08-2020 31.8 (16:40) 19.5 (00:00) 25.6 9.44 (12:40) 5.83 (04:10) 0 0 0 0 0
25-08-2020 31.2 (17:00) 17.7 (00:00) 24.5 9.44 (02:20) 5.83 (02:10) 0 0 0 0 0
24-08-2020 27.4 (18:00) 16.4 (08:40) 21.9 10.28 (13:20) 6.67 (13:30) 0 0 0 0 0
23-08-2020 27 (16:50) 14.7 (00:00) 20.8 10 (17:00) 6.11 (13:30) 0 0 0 0 0
22-08-2020 29 (17:30) 16.4 (00:00) 22.7 9.17 (16:50) 5.56 (18:00) 0 0 0 0 0
21-08-2020 29.5 (15:40) 17.3 (02:30) 23.4 12.22 (15:40) 5.56 (16:00) 0 0 0 0 0

Gráficas

Temp. máximas Temp. mínimas Temp. medias Precipitaciones Rachas de viento máximas Velocidades máximas media en intervalos de 10 minutos

Datos horarios

Fecha y hora oficial Temperatura (ºC) Velocidad del viento (km/h) Dirección del viento Racha (km/h) Dirección de racha Precipitación (mm) Presión (hPa) Tendencia (hPa) Humedad (%)
2020-09-19 23:00:00 11.7 10 Noroeste 18 Noroeste 0 -- -- 82
2020-09-19 22:00:00 12 8 Noroeste 16 Noroeste 0 -- -- 79
2020-09-19 21:00:00 13.3 9 Oeste 21 Oeste 0 -- -- 71
2020-09-19 20:00:00 14.2 9 Oeste 22 Oeste 0 -- -- 66
2020-09-19 19:00:00 15.5 9 Oeste 22 Sudoeste 0 -- -- 60
2020-09-19 18:00:00 15.9 13 Oeste 40 Sudoeste 0 -- -- 59
2020-09-19 17:00:00 16.1 9 Sudoeste 33 Oeste 0 -- -- 63
2020-09-19 16:00:00 15.4 10 Oeste 27 Oeste 0 -- -- 68
2020-09-19 15:00:00 15.8 13 Oeste 39 Oeste 0 -- -- 67
2020-09-19 14:00:00 13.9 13 Oeste 27 Sudoeste 0 -- -- 72
2020-09-19 13:00:00 13.3 8 Sudoeste 25 Oeste 0 -- -- 76
2020-09-19 12:00:00 12.2 3 Sudeste 13 Este 0 -- -- 87
2020-09-19 11:00:00 11.5 5 Nordeste 17 Sudoeste 0 -- -- 84
2020-09-19 10:00:00 11.6 3 Noroeste 23 Sur 0 -- -- 84
2020-09-19 09:00:00 11.3 4 Sur 27 Sur 0 -- -- 86
2020-09-19 08:00:00 11.2 10 Sur 30 Sudoeste 0 -- -- 89
2020-09-19 07:00:00 11.4 9 Sur 29 Oeste 0 -- -- 86
2020-09-19 06:00:00 11.8 7 Sudoeste 30 Sur 0 -- -- 86
2020-09-19 05:00:00 11.9 12 Sudoeste 37 Sudoeste 0 -- -- 87
2020-09-19 04:00:00 11.7 11 Sur 29 Sur 0.2 -- -- 93
2020-09-19 03:00:00 11.7 10 Sur 23 Sudeste 1.6 -- -- 95
2020-09-19 02:00:00 11.4 11 Sudeste 18 Sudeste 0 -- -- 94
2020-09-19 01:00:00 11.3 9 Sudeste 15 Sudeste 0 -- -- 91
2020-09-19 00:00:00 11.1 6 Sur 25 Sur 0 -- -- 88
2020-09-18 23:00:00 12.8 13 Sur 26 Sudoeste 0 -- -- 77
2020-09-18 22:00:00 12.2 4 Oeste 26 Oeste 0 -- -- 78
2020-09-18 21:00:00 11.5 10 Oeste 47 Oeste 0.2 -- -- 83
2020-09-18 20:00:00 13.1 16 Sudeste 38 Sudeste 0.8 -- -- 95
2020-09-18 19:00:00 14.2 12 Sur 28 Sudeste 0 -- -- 91
2020-09-18 18:00:00 14.3 17 Sudeste 29 Sudeste 0 -- -- 91
2020-09-18 17:00:00 14 18 Sur 37 Sudeste 0 -- -- 94
2020-09-18 16:00:00 13.9 16 Sudeste 33 Sudeste 0.2 -- -- 94
2020-09-18 15:00:00 15.1 21 Sudeste 35 Sudeste 0 -- -- 86
2020-09-18 14:00:00 14.4 13 Sur 34 Sudeste 0 -- -- 90
2020-09-18 13:00:00 14.3 21 Sudeste 37 Sudeste 0 -- -- 89
2020-09-18 12:00:00 14.5 12 Sur 26 Sur 0 -- -- 86
2020-09-18 11:00:00 13.1 15 Sur 28 Sur 0 -- -- 89
2020-09-18 10:00:00 12 13 Sur 31 Sur 0 -- -- 92
2020-09-18 09:00:00 11.5 23 Sudeste 34 Sur 0.6 -- -- 96
2020-09-18 08:00:00 12.7 12 Sur 35 Sur 0.4 -- -- 93
2020-09-18 07:00:00 13.5 17 Sur 38 Sur 0 -- -- 93
2020-09-18 06:00:00 13.8 17 Sur 28 Sur 0 -- -- 97
2020-09-18 05:00:00 14 17 Sur 34 Sudeste 0 -- -- 97
2020-09-18 04:00:00 14.2 12 Sur 31 Sur 0 -- -- 97
2020-09-18 03:00:00 14.1 15 Sudeste 27 Sudeste 0 -- -- 96
2020-09-18 02:00:00 14.1 15 Sur 23 Sur 0 -- -- 93
2020-09-18 01:00:00 13.9 10 Sur 17 Sur 1.4 -- -- 92
2020-09-18 00:00:00 14.3 10 Sudoeste 38 Sur 1.4 -- -- 87
2020-09-17 23:00:00 15.7 16 Sur 28 Sur 0 -- -- 83
2020-09-17 22:00:00 16.3 19 Sur 28 Sur 0 -- -- 83
2020-09-17 21:00:00 17.1 14 Sur 26 Sur 0 -- -- 73
2020-09-17 20:00:00 18.5 15 Sur 24 Sudeste 0 -- -- 58
2020-09-17 19:00:00 19.7 13 Sudeste 30 Sudeste 0 -- -- 55
2020-09-17 18:00:00 20.2 15 Sur 33 Sur 0 -- -- 55
2020-09-17 17:00:00 20.2 13 Sur 28 Sudoeste 0 -- -- 56
2020-09-17 16:00:00 18.9 17 Sur 31 Sur 0 -- -- 58
2020-09-17 15:00:00 19.3 17 Sur 33 Sur 0 -- -- 54
2020-09-17 14:00:00 18.2 20 Sudeste 32 Sudeste 0 -- -- 56
2020-09-17 13:00:00 18.1 14 Sudeste 34 Sudeste 0 -- -- 54
2020-09-17 12:00:00 17.1 17 Sudeste 30 Sudeste 0 -- -- 55
2020-09-17 11:00:00 16.3 11 Sur 20 Sur 0 -- -- 60
2020-09-17 10:00:00 15.5 9 Sudeste 17 Sur 0 -- -- 63
2020-09-17 09:00:00 15 8 Sur 21 Sur 0 -- -- 65
2020-09-17 08:00:00 14.6 10 Sur 20 Sudeste 0 -- -- 65
2020-09-17 07:00:00 14.5 8 Sur 13 Sudeste 0 -- -- 64
2020-09-17 06:00:00 14.8 5 Sur 14 Sur 0 -- -- 61
2020-09-17 05:00:00 15.6 9 Sur 23 Sur 0 -- -- 56
2020-09-17 04:00:00 16.2 13 Sur 25 Sur 0 -- -- 54
2020-09-17 03:00:00 16.8 12 Sur 23 Sur 0 -- -- 54
2020-09-17 02:00:00 17.3 13 Sur 23 Sur 0 -- -- 56
2020-09-17 01:00:00 17.3 10 Sur 22 Sur 0 -- -- 56
2020-09-17 00:00:00 17.1 9 Sur 22 Sur 0 -- -- 55
2020-09-16 23:00:00 17.6 14 Sur 27 Sur 0 -- -- 52
2020-09-16 22:00:00 18.1 15 Sur 27 Sur 0 -- -- 54
2020-09-16 21:00:00 18.9 12 Sur 30 Sur 0 -- -- 56
2020-09-16 20:00:00 20.3 19 Sur 32 Sur 0 -- -- 50
2020-09-16 19:00:00 22.2 19 Sur 34 Sudeste 0 -- -- 44
2020-09-16 18:00:00 23.2 18 Sudeste 36 Sudeste 0 -- -- 42
2020-09-16 17:00:00 23.1 22 Sudeste 34 Sudeste 0 -- -- 40
2020-09-16 16:00:00 23.4 12 Sur 31 Sur 0 -- -- 39
2020-09-16 15:00:00 24 13 Sudeste 28 Sudeste 0 -- -- 38
2020-09-16 14:00:00 23.9 15 Sudeste 28 Sudeste 0 -- -- 38
2020-09-16 13:00:00 23.2 15 Sudeste 24 Sudeste 0 -- -- 41
2020-09-16 12:00:00 22 14 Sudeste 22 Sudeste 0 -- -- 43
2020-09-16 11:00:00 21.3 10 Sudeste 17 Sudeste 0 -- -- 47
2020-09-16 10:00:00 19 3 Este 5 Este 0 -- -- 58
2020-09-16 09:00:00 16.6 0 Calma 5 Noroeste 0 -- -- 65
2020-09-16 08:00:00 14.8 3 Noroeste 5 Oeste 0 -- -- 73
2020-09-16 07:00:00 14.9 0 Calma 6 Sudeste 0 -- -- 72
2020-09-16 06:00:00 16.1 2 Sudoeste 19 Oeste 0 -- -- 66
2020-09-16 05:00:00 17.4 13 Sudoeste 22 Sudoeste 0 -- -- 60
2020-09-16 04:00:00 17.3 18 Oeste 25 Sudoeste 0 -- -- 63
2020-09-16 03:00:00 17.5 19 Sudoeste 26 Sudoeste 0 -- -- 63
2020-09-16 02:00:00 16.7 9 Sudoeste 17 Sudoeste 0 -- -- 66
2020-09-16 01:00:00 16.2 10 Sur 23 Sur 0 -- -- 75
2020-09-16 00:00:00 16.3 16 Sur 21 Sur 0 -- -- 79
2020-09-15 23:00:00 16.7 9 Sur 13 Sur 0 -- -- 71
2020-09-15 22:00:00 17.8 8 Sur 15 Sudoeste 0 -- -- 62
2020-09-15 21:00:00 18.7 8 Sur 11 Sur 0 -- -- 58
2020-09-15 20:00:00 20.7 7 Sur 25 Sur 0 -- -- 48
2020-09-15 19:00:00 22.5 9 Sudoeste 28 Sur 0 -- -- 41
2020-09-15 18:00:00 23.5 12 Sur 28 Sur 0 -- -- 38
2020-09-15 17:00:00 23.6 14 Sur 28 Sur 0 -- -- 40
2020-09-15 16:00:00 22.9 12 Sur 24 Sur 0 -- -- 43
2020-09-15 15:00:00 23.6 12 Sur 30 Sudeste 0 -- -- 47
2020-09-15 14:00:00 21.6 14 Sudeste 31 Sudeste 0.2 -- -- 54
2020-09-15 13:00:00 20.8 15 Sudeste 26 Sudeste 0 -- -- 59
2020-09-15 12:00:00 20.3 13 Sudoeste 24 Sur 0 -- -- 55
2020-09-15 11:00:00 19.4 7 Sudeste 14 Sudeste 0 -- -- 66
2020-09-15 10:00:00 15.6 3 Noroeste 25 Sur 0 -- -- 73
2020-09-15 09:00:00 13.7 15 Sur 35 Sur 2.8 -- -- 78
2020-09-15 08:00:00 13.5 9 Sur 35 Sudoeste 0.6 -- -- 81
2020-09-15 07:00:00 14.4 21 Oeste 35 Oeste 0 -- -- 78
2020-09-15 06:00:00 14.2 13 Sur 22 Sur 0 -- -- 81
2020-09-15 05:00:00 14.4 12 Sur 21 Sur 0 -- -- 75
2020-09-15 04:00:00 13.8 4 Oeste 19 Sudeste 0 -- -- 77
2020-09-15 03:00:00 14.2 8 Sur 14 Sur 0 -- -- 75
2020-09-15 02:00:00 13.8 4 Sur 19 Sudeste 0.6 -- -- 81
2020-09-15 01:00:00 14.8 6 Sudoeste 21 Sur 1.6 -- -- 80
2020-09-15 00:00:00 15.5 7 Sudoeste 25 Oeste 0.2 -- -- 73
2020-09-14 23:00:00 16.3 11 Sur 19 Sur 0 -- -- 64
2020-09-14 22:00:00 16.7 14 Sur 21 Sur 0 -- -- 58
2020-09-14 21:00:00 18.2 12 Sur 27 Sur 0 -- -- 52
2020-09-14 20:00:00 19.5 18 Sur 28 Sur 0 -- -- 48
2020-09-14 19:00:00 20.6 15 Sur 30 Sudeste 0 -- -- 42
2020-09-14 18:00:00 22.4 17 Sudeste 31 Sudeste 0 -- -- 37
2020-09-14 17:00:00 23.4 19 Sur 34 Sudeste 0 -- -- 34
2020-09-14 16:00:00 23.5 21 Sudeste 34 Sudeste 0 -- -- 35
2020-09-14 15:00:00 23.9 19 Sudeste 35 Sudeste 0 -- -- 35
2020-09-14 14:00:00 22.3 21 Sur 38 Sudeste 0 -- -- 39
2020-09-14 13:00:00 21 21 Sudeste 42 Sudeste 0 -- -- 42
2020-09-14 12:00:00 20.8 24 Sudeste 35 Sudeste 0 -- -- 45
2020-09-14 11:00:00 18.7 15 Sudeste 30 Sudeste 0 -- -- 53
2020-09-14 10:00:00 16.8 8 Sur 17 Sur 0 -- -- 59
2020-09-14 09:00:00 16.6 11 Sur 19 Sur 0 -- -- 60
2020-09-14 08:00:00 14.5 9 Sur 18 Sur 0 -- -- 64
2020-09-14 07:00:00 14.8 12 Sur 21 Sur 0 -- -- 65
2020-09-14 06:00:00 14.8 12 Sur 22 Sudoeste 0 -- -- 69
2020-09-14 05:00:00 14.8 12 Sur 24 Sur 0 -- -- 74
2020-09-14 04:00:00 15.2 13 Sur 22 Sur 0 -- -- 67
2020-09-14 03:00:00 15.6 13 Sur 25 Sur 0 -- -- 63
2020-09-14 02:00:00 16.1 15 Sur 25 Sur 0 -- -- 59
2020-09-14 01:00:00 16.5 17 Sur 25 Sur 0 -- -- 55
2020-09-14 00:00:00 16.7 18 Sur 26 Sur 0 -- -- 54
2020-09-13 23:00:00 16.7 18 Sur 30 Sur 0 -- -- 56
2020-09-13 22:00:00 17.4 20 Sur 38 Sur 0 -- -- 55
2020-09-13 21:00:00 18 15 Sur 32 Sur 0 -- -- 53
2020-09-13 20:00:00 19.6 17 Sur 29 Sudeste 0 -- -- 48
2020-09-13 19:00:00 21.9 20 Sudeste 30 Sudeste 0 -- -- 42
2020-09-13 18:00:00 23.4 16 Sudeste 34 Sudeste 0 -- -- 37
2020-09-13 17:00:00 25 15 Sudeste 32 Sudeste 0 -- -- 31
2020-09-13 16:00:00 25.8 10 Sur 23 Sudeste 0 -- -- 26
2020-09-13 15:00:00 25.2 8 Sur 27 Sudeste 0 -- -- 26
2020-09-13 14:00:00 24.2 15 Este 30 Este 0 -- -- 30
2020-09-13 13:00:00 23.3 12 Sudeste 26 Sudeste 0 -- -- 33
2020-09-13 12:00:00 22.6 13 Sudeste 25 Sudeste 0 -- -- 36
2020-09-13 11:00:00 21.2 16 Sudeste 27 Sudeste 0 -- -- 44
2020-09-13 10:00:00 20 15 Sur 26 Sur 0 -- -- 47
2020-09-13 09:00:00 18.3 15 Sur 23 Sur 0 -- -- 49
2020-09-13 08:00:00 16.2 12 Sur 24 Sudoeste 0 -- -- 57
2020-09-13 07:00:00 16.3 15 Sur 23 Sudoeste 0 -- -- 54
2020-09-13 06:00:00 15.7 14 Sur 24 Sudoeste 0 -- -- 59
2020-09-13 05:00:00 15.4 17 Sur 28 Sur 0 -- -- 60
2020-09-13 04:00:00 16 17 Sur 27 Sur 0 -- -- 58
2020-09-13 03:00:00 16.3 15 Sur 24 Sur 0 -- -- 54
2020-09-13 02:00:00 15.9 15 Sur 27 Sur 0 -- -- 58
2020-09-13 01:00:00 15.8 18 Sur 28 Sur 0 -- -- 59
2020-09-13 00:00:00 15.6 15 Sur 26 Sur 0 -- -- 62
2020-09-12 23:00:00 16.4 17 Sur 31 Sur 0 -- -- 59
2020-09-12 22:00:00 17.4 20 Sur 32 Sur 0 -- -- 59
2020-09-12 21:00:00 18.6 17 Sur 26 Sur 0 -- -- 61
2020-09-12 20:00:00 20.8 16 Sur 30 Sur 0 -- -- 53
2020-09-12 19:00:00 23.1 15 Sudeste 30 Sudeste 0 -- -- 41
2020-09-12 18:00:00 25 16 Sur 26 Sudeste 0 -- -- 33
2020-09-12 17:00:00 24.5 12 Sudeste 26 Sudeste 0 -- -- 32
2020-09-12 16:00:00 23.9 12 Sudeste 33 Sudeste 0 -- -- 33
2020-09-12 15:00:00 25.7 13 Sur 35 Sudeste 0 -- -- 32
2020-09-12 14:00:00 24.3 18 Sudeste 34 Sudeste 0 -- -- 34
2020-09-12 13:00:00 23.1 15 Sudeste 30 Sudeste 0 -- -- 39
2020-09-12 12:00:00 22 15 Sudeste 30 Sudeste 0 -- -- 41
2020-09-12 11:00:00 20.7 16 Sudeste 24 Sudeste 0 -- -- 43
2020-09-12 10:00:00 19.4 14 Sudeste 23 Sudeste 0 -- -- 43
2020-09-12 09:00:00 18 13 Sur 25 Sur 0 -- -- 46
2020-09-12 08:00:00 15.8 17 Sur 24 Sur 0 -- -- 49
2020-09-12 07:00:00 15.7 15 Sur 24 Sur 0 -- -- 50
2020-09-12 06:00:00 15.7 12 Sur 20 Sur 0 -- -- 49
2020-09-12 05:00:00 15.9 12 Sur 19 Sudoeste 0 -- -- 48
2020-09-12 04:00:00 15.8 13 Sur 21 Sur 0 -- -- 53
2020-09-12 03:00:00 16 14 Sur 21 Sur 0 -- -- 54
2020-09-12 02:00:00 16.2 13 Sur 23 Sur 0 -- -- 54
2020-09-12 01:00:00 16.6 12 Sur 17 Sur 0 -- -- 61
2020-09-12 00:00:00 16.9 12 Sur 21 Sur 0 -- -- 63
2020-09-11 23:00:00 17.1 13 Sur 24 Sur 0 -- -- 63
2020-09-11 22:00:00 18.1 14 Sur 23 Sur 0 -- -- 58
2020-09-11 21:00:00 19 13 Sur 18 Sur 0 -- -- 58
2020-09-11 20:00:00 20.8 8 Sur 17 Nordeste 0 -- -- 50
2020-09-11 19:00:00 23.3 11 Nordeste 21 Nordeste 0 -- -- 28
2020-09-11 18:00:00 24.5 10 Nordeste 19 Este 0 -- -- 29
2020-09-11 17:00:00 24.2 8 Nordeste 20 Norte 0 -- -- 31
2020-09-11 16:00:00 24.5 5 Noroeste 17 Este 0 -- -- 30
2020-09-11 15:00:00 24.7 13 Nordeste 23 Nordeste 0 -- -- 30
2020-09-11 14:00:00 23.7 5 Noroeste 16 Noroeste 0 -- -- 31
2020-09-11 13:00:00 22.7 5 Nordeste 16 Oeste 0 -- -- 32
2020-09-11 12:00:00 22 9 Oeste 18 Noroeste 0 -- -- 36
2020-09-11 11:00:00 20.8 2 Sudeste 8 Nordeste 0 -- -- 39
2020-09-11 10:00:00 17.3 5 Norte 8 Norte 0 -- -- 44
2020-09-11 09:00:00 16.6 4 Sudeste 6 Sudeste 0 -- -- 46
2020-09-11 08:00:00 14.2 3 Noroeste 10 Noroeste 0 -- -- 57
2020-09-11 07:00:00 14.2 3 Sudeste 7 Este 0 -- -- 54
2020-09-11 06:00:00 14 4 Oeste 8 Oeste 0 -- -- 55
2020-09-11 05:00:00 13.6 4 Oeste 6 Oeste 0 -- -- 51
2020-09-11 04:00:00 13.3 0 Calma 10 Noroeste 0 -- -- 53
2020-09-11 03:00:00 13.9 9 Noroeste 13 Noroeste 0 -- -- 53
2020-09-11 02:00:00 14 9 Noroeste 13 Noroeste 0 -- -- 53
2020-09-11 01:00:00 14.6 5 Noroeste 10 Oeste 0 -- -- 53
2020-09-11 00:00:00 14.8 8 Oeste 10 Noroeste 0 -- -- 53
2020-09-10 23:00:00 16 7 Noroeste 18 Noroeste 0 -- -- 51
2020-09-10 22:00:00 16.6 11 Noroeste 18 Noroeste 0 -- -- 49
2020-09-10 21:00:00 17.3 10 Noroeste 18 Norte 0 -- -- 48
2020-09-10 20:00:00 19.5 12 Norte 26 Norte 0 -- -- 43
2020-09-10 19:00:00 20.7 15 Norte 30 Norte 0 -- -- 41
2020-09-10 18:00:00 21.9 14 Norte 26 Norte 0 -- -- 37
2020-09-10 17:00:00 21.2 10 Nordeste 22 Nordeste 0 -- -- 38
2020-09-10 16:00:00 21.6 12 Nordeste 24 Este 0 -- -- 37
2020-09-10 15:00:00 20.6 6 Nordeste 20 Norte 0 -- -- 39
2020-09-10 14:00:00 19.9 9 Noroeste 30 Norte 0 -- -- 40
2020-09-10 13:00:00 19.8 10 Norte 21 Nordeste 0 -- -- 44
2020-09-10 12:00:00 18.4 9 Norte 21 Nordeste 0 -- -- 50
2020-09-10 11:00:00 16.8 8 Nordeste 17 Norte 0 -- -- 59
2020-09-10 10:00:00 14.4 11 Norte 19 Norte 0 -- -- 70
2020-09-10 09:00:00 12.6 14 Noroeste 23 Noroeste 0 -- -- 77
2020-09-10 08:00:00 11.1 17 Noroeste 24 Noroeste 0 -- -- 84
2020-09-10 07:00:00 10.8 13 Noroeste 19 Noroeste 0 -- -- 83
2020-09-10 06:00:00 11.5 13 Noroeste 21 Noroeste 0 -- -- 78
2020-09-10 05:00:00 12.6 13 Noroeste 20 Noroeste 0 -- -- 68
2020-09-10 04:00:00 14 14 Noroeste 19 Noroeste 0 -- -- 61
2020-09-10 03:00:00 14.3 12 Noroeste 19 Oeste 0 -- -- 57
2020-09-10 02:00:00 14.8 12 Noroeste 17 Noroeste 0 -- -- 54
2020-09-10 01:00:00 15 12 Noroeste 16 Noroeste 0 -- -- 54
2020-09-10 00:00:00 14.7 8 Noroeste 12 Noroeste 0 -- -- 58
2020-09-09 23:00:00 15 9 Noroeste 12 Noroeste 0 -- -- 56
2020-09-09 22:00:00 15.8 8 Oeste 10 Oeste 0 -- -- 54
2020-09-09 21:00:00 16.5 3 Oeste 9 Sur 0 -- -- 54
2020-09-09 20:00:00 17.6 0 Calma 12 Este 0 -- -- 50
2020-09-09 19:00:00 18.1 5 Este 15 Nordeste 0 -- -- 50
2020-09-09 18:00:00 18.4 9 Nordeste 18 Norte 0 -- -- 48
2020-09-09 17:00:00 18.7 11 Nordeste 19 Nordeste 0 -- -- 46
2020-09-09 16:00:00 19.1 10 Norte 21 Norte 0 -- -- 44
2020-09-09 15:00:00 18.6 12 Norte 25 Norte 0 -- -- 44
2020-09-09 14:00:00 18.2 13 Norte 24 Norte 0 -- -- 47
2020-09-09 13:00:00 17.9 9 Nordeste 21 Nordeste 0 -- -- 49
2020-09-09 12:00:00 17.2 11 Nordeste 22 Nordeste 0 -- -- 52
2020-09-09 11:00:00 16 13 Norte 26 Norte 0 -- -- 56
2020-09-09 10:00:00 14.3 12 Norte 21 Norte 0 -- -- 61
2020-09-09 09:00:00 12.9 13 Noroeste 18 Noroeste 0 -- -- 62
2020-09-09 08:00:00 10.9 8 Noroeste 14 Noroeste 0 -- -- 68
2020-09-09 07:00:00 10.8 9 Noroeste 13 Noroeste 0 -- -- 67
2020-09-09 06:00:00 11.3 8 Noroeste 12 Noroeste 0 -- -- 66
2020-09-09 05:00:00 12.3 6 Noroeste 14 Norte 0 -- -- 62
2020-09-09 04:00:00 12.4 10 Noroeste 12 Noroeste 0 -- -- 62
2020-09-09 03:00:00 13 6 Noroeste 9 Noroeste 0 -- -- 61
2020-09-09 02:00:00 12.3 4 Noroeste 6 Noroeste 0 -- -- 63
2020-09-09 01:00:00 12.9 0 Calma 8 Nordeste 0 -- -- 61
2020-09-09 00:00:00 12.9 5 Noroeste 14 Sur 0 -- -- 62
2020-09-08 23:00:00 12.9 11 Sur 15 Sudoeste 0 -- -- 62
2020-09-08 22:00:00 13.5 10 Sur 21 Sudoeste 0 -- -- 59
2020-09-08 21:00:00 14.1 16 Sur 25 Sudeste 0 -- -- 56
2020-09-08 20:00:00 15.8 14 Sur 26 Sudeste 0 -- -- 50
2020-09-08 19:00:00 18.4 14 Sudeste 23 Este 0 -- -- 37
2020-09-08 18:00:00 19.7 8 Este 20 Sudeste 0 -- -- 34
2020-09-08 17:00:00 19.5 6 Norte 23 Sudeste 0 -- -- 34
2020-09-08 16:00:00 19.3 9 Este 29 Sudeste 0 -- -- 32
2020-09-08 15:00:00 18.6 7 Este 24 Este 0 -- -- 34
2020-09-08 14:00:00 17.5 9 Nordeste 30 Este 0 -- -- 38
2020-09-08 13:00:00 16.6 10 Sudeste 23 Este 0 -- -- 43
2020-09-08 12:00:00 15.3 9 Sudeste 19 Este 0 -- -- 44
2020-09-08 11:00:00 13.3 4 Nordeste 9 Nordeste 0 -- -- 50
2020-09-08 10:00:00 10.6 3 Norte 11 Noroeste 0 -- -- 61
2020-09-08 09:00:00 8.9 5 Norte 14 Oeste 0 -- -- 68
2020-09-08 08:00:00 6.7 10 Oeste 13 Noroeste 0 -- -- 76
2020-09-08 07:00:00 6.4 8 Noroeste 16 Noroeste 0 -- -- 76
2020-09-08 06:00:00 6.6 10 Noroeste 20 Noroeste 0 -- -- 77
2020-09-08 05:00:00 6.3 13 Noroeste 19 Noroeste 0 -- -- 78
2020-09-08 04:00:00 6.9 8 Noroeste 16 Noroeste 0 -- -- 71
2020-09-08 03:00:00 7.6 10 Noroeste 14 Oeste 0 -- -- 69
2020-09-08 02:00:00 7.8 10 Oeste 13 Oeste 0 -- -- 68
2020-09-08 01:00:00 8.3 8 Noroeste 13 Noroeste 0 -- -- 65
2020-09-08 00:00:00 9.3 8 Oeste 13 Noroeste 0 -- -- 60
2020-09-07 23:00:00 10.5 5 Noroeste 11 Noroeste 0 -- -- 52
2020-09-07 22:00:00 11 5 Noroeste 10 Norte 0 -- -- 51
2020-09-07 21:00:00 12.5 8 Norte 19 Norte 0 -- -- 44
2020-09-07 20:00:00 14.8 14 Norte 22 Norte 0 -- -- 39
2020-09-07 19:00:00 16.7 14 Norte 29 Norte 0 -- -- 36
2020-09-07 18:00:00 17.1 17 Nordeste 32 Norte 0 -- -- 36
2020-09-07 17:00:00 17.2 18 Nordeste 32 Este 0 -- -- 37
2020-09-07 16:00:00 17.6 18 Nordeste 33 Norte 0 -- -- 35
2020-09-07 15:00:00 16.7 15 Norte 30 Norte 0 -- -- 36
2020-09-07 14:00:00 16.2 19 Nordeste 34 Nordeste 0 -- -- 42
2020-09-07 13:00:00 15.2 11 Norte 32 Norte 0 -- -- 44
2020-09-07 12:00:00 13.4 19 Norte 33 Nordeste 0 -- -- 52
2020-09-07 11:00:00 11.8 18 Norte 31 Norte 0 -- -- 58
2020-09-07 10:00:00 9.9 20 Norte 28 Norte 0 -- -- 68
2020-09-07 09:00:00 7.8 16 Norte 25 Norte 0 -- -- 85
2020-09-07 08:00:00 6.9 14 Noroeste 20 Oeste 0 -- -- 89
2020-09-07 07:00:00 7.3 13 Noroeste 17 Oeste 0 -- -- 91
2020-09-07 06:00:00 8.4 12 Noroeste 17 Noroeste 0 -- -- 84
2020-09-07 05:00:00 9.3 16 Noroeste 22 Noroeste 0 -- -- 81
2020-09-07 04:00:00 10.2 9 Noroeste 13 Noroeste 0 -- -- 79
2020-09-07 03:00:00 11.5 4 Noroeste 10 Norte 0 -- -- 75
2020-09-07 02:00:00 13.1 3 Noroeste 4 Noroeste 0 -- -- 71
2020-09-07 01:00:00 14.2 0 Calma 4 Oeste 0 -- -- 69
2020-09-07 00:00:00 15 3 Norte 8 Noroeste 0 -- -- 67
2020-09-06 23:00:00 15.7 4 Noroeste 9 Norte 0 -- -- 64
2020-09-06 22:00:00 16.5 4 Noroeste 13 Sur 0 -- -- 62
2020-09-06 21:00:00 18.8 7 Sur 13 Sur 0 -- -- 57
2020-09-06 20:00:00 21.2 9 Sudeste 25 Sudeste 0 -- -- 48
2020-09-06 19:00:00 22.1 16 Sur 28 Sudeste 0 -- -- 45
2020-09-06 18:00:00 22.9 6 Este 23 Sudeste 0 -- -- 41
2020-09-06 17:00:00 23.2 17 Sudeste 27 Sudeste 0 -- -- 39
2020-09-06 16:00:00 22.6 14 Sudeste 28 Sudeste 0 -- -- 40
2020-09-06 15:00:00 24 15 Sudeste 28 Sudeste 0 -- -- 39
2020-09-06 14:00:00 23.8 18 Sudeste 35 Sudeste 0 -- -- 41
2020-09-06 13:00:00 22.3 17 Sudeste 28 Sur 0 -- -- 42
2020-09-06 12:00:00 21.3 17 Sudeste 32 Sudeste 0 -- -- 45
2020-09-06 11:00:00 20.4 18 Sur 29 Sudeste 0 -- -- 48
2020-09-06 10:00:00 19.4 15 Sudeste 25 Sudeste 0 -- -- 51
2020-09-06 09:00:00 16.5 2 Este 9 Norte 0 -- -- 57
2020-09-06 08:00:00 14.1 3 Noroeste 23 Sur 0 -- -- 61
2020-09-06 07:00:00 15.9 14 Sur 21 Sur 0 -- -- 52
2020-09-06 06:00:00 15.5 14 Sur 26 Sur 0 -- -- 57
2020-09-06 05:00:00 15.8 17 Sur 29 Sudoeste 0 -- -- 56
2020-09-06 04:00:00 16.4 17 Sur 25 Sudoeste 0 -- -- 52
2020-09-06 03:00:00 16.7 17 Sur 26 Sudoeste 0 -- -- 47
2020-09-06 02:00:00 17 16 Sur 27 Sur 0 -- -- 47
2020-09-06 01:00:00 17 14 Sur 24 Sur 0 -- -- 49
2020-09-06 00:00:00 17.4 13 Sur 22 Sudoeste 0 -- -- 49
2020-09-05 23:00:00 18.1 10 Sur 19 Sudoeste 0 -- -- 53
2020-09-05 22:00:00 18.2 10 Sur 20 Sur 0 -- -- 64
2020-09-05 21:00:00 19.2 14 Sur 24 Sur 0 -- -- 63
2020-09-05 20:00:00 20.7 17 Sur 33 Sur 0 -- -- 55
2020-09-05 19:00:00 23.7 17 Sur 27 Sudeste 0 -- -- 43
2020-09-05 18:00:00 26.9 6 Sudeste 22 Este 0 -- -- 25
2020-09-05 17:00:00 27.2 7 Noroeste 21 Norte 0 -- -- 25
2020-09-05 16:00:00 26.6 9 Sudeste 18 Sudeste 0 -- -- 26
2020-09-05 15:00:00 26.2 7 Noroeste 22 Nordeste 0 -- -- 27
2020-09-05 14:00:00 25.2 6 Nordeste 21 Este 0 -- -- 30
2020-09-05 13:00:00 24.3 8 Este 19 Este 0 -- -- 33
2020-09-05 12:00:00 23.6 5 Nordeste 15 Norte 0 -- -- 36
2020-09-05 11:00:00 21.8 7 Nordeste 15 Este 0 -- -- 39
2020-09-05 10:00:00 20 5 Nordeste 9 Norte 0 -- -- 46
2020-09-05 09:00:00 18.3 5 Norte 8 Norte 0 -- -- 48
2020-09-05 08:00:00 16.1 7 Noroeste 9 Noroeste 0 -- -- 54
2020-09-05 07:00:00 15.5 3 Noroeste 4 Noroeste 0 -- -- 57
2020-09-05 06:00:00 15 0 Calma 3 Sudeste 0 -- -- 62
2020-09-05 05:00:00 14.4 4 Noroeste 8 Noroeste 0 -- -- 65
2020-09-05 04:00:00 14.1 3 Sur 4 Norte 0 -- -- 68
2020-09-05 03:00:00 14.1 0 Calma 5 Oeste 0 -- -- 69
2020-09-05 02:00:00 14.1 2 Oeste 14 Sudeste 0 -- -- 70
2020-09-05 01:00:00 14.4 7 Sudeste 18 Sur 0 -- -- 70
2020-09-05 00:00:00 14.6 10 Sudeste 17 Sur 0 -- -- 69
2020-09-04 23:00:00 15.3 7 Sudeste 12 Sudeste 0 -- -- 64
2020-09-04 22:00:00 16.5 10 Sur 23 Sur 0 -- -- 60
2020-09-04 21:00:00 18.4 16 Sur 24 Sur 0 -- -- 52
2020-09-04 20:00:00 20.7 16 Sur 27 Sudeste 0 -- -- 44
2020-09-04 19:00:00 24.1 13 Sur 25 Sudeste 0 -- -- 30
2020-09-04 18:00:00 25.2 9 Sudeste 22 Sudeste 0 -- -- 24
2020-09-04 17:00:00 25.3 13 Sudeste 27 Sudeste 0 -- -- 23
2020-09-04 16:00:00 25.2 14 Sudeste 27 Sudeste 0 -- -- 22
2020-09-04 15:00:00 24.6 12 Sudeste 24 Sudeste 0 -- -- 19
2020-09-04 14:00:00 23.9 10 Sudeste 25 Sudeste 0 -- -- 18
2020-09-04 13:00:00 22.7 13 Sudeste 27 Sudeste 0 -- -- 22
2020-09-04 12:00:00 21.3 12 Sudeste 20 Sudeste 0 -- -- 36
2020-09-04 11:00:00 19.8 10 Sudeste 21 Sudeste 0 -- -- 43
2020-09-04 10:00:00 18.3 13 Sudeste 21 Sudeste 0 -- -- 44
2020-09-04 09:00:00 15.4 0 Calma 4 Sudeste 0 -- -- 57
2020-09-04 08:00:00 12.7 0 Calma 2 Oeste 0 -- -- 66
2020-09-04 07:00:00 12.8 0 Calma 5 Noroeste 0 -- -- 67
2020-09-04 06:00:00 13.2 0 Calma 13 Sur 0 -- -- 63
2020-09-04 05:00:00 14.7 5 Sudoeste 20 Sur 0 -- -- 56
2020-09-04 04:00:00 15 14 Sur 23 Sur 0 -- -- 51
2020-09-04 03:00:00 15 15 Sur 26 Sudoeste 0 -- -- 65
2020-09-04 02:00:00 15.3 17 Sur 31 Sudoeste 0 -- -- 65
2020-09-04 01:00:00 15.3 19 Sur 29 Sudoeste 0 -- -- 66
2020-09-04 00:00:00 16.9 13 Sudoeste 25 Sur 0 -- -- 69
2020-09-03 23:00:00 15.9 17 Sur 29 Sur 0 -- -- 78
2020-09-03 22:00:00 16 19 Sur 29 Sur 0 -- -- 79
2020-09-03 21:00:00 17.6 19 Sur 28 Sur 0 -- -- 72
2020-09-03 20:00:00 19.8 15 Sur 30 Sur 0 -- -- 60
2020-09-03 19:00:00 22.3 20 Sudeste 31 Sudeste 0 -- -- 49
2020-09-03 18:00:00 24.7 12 Sur 27 Sudeste 0 -- -- 31
2020-09-03 17:00:00 24.9 7 Sur 25 Sudeste 0 -- -- 34
2020-09-03 16:00:00 24.1 8 Este 37 Sudeste 0 -- -- 36
2020-09-03 15:00:00 24 13 Sudeste 26 Sudeste 0 -- -- 37
2020-09-03 14:00:00 22.5 10 Sudeste 23 Sudeste 0 -- -- 43
2020-09-03 13:00:00 21.1 6 Este 23 Sudeste 0 -- -- 50
2020-09-03 12:00:00 20.5 16 Sudeste 27 Sudeste 0 -- -- 58
2020-09-03 11:00:00 19.4 11 Sudeste 20 Sudeste 0 -- -- 58
2020-09-03 10:00:00 17.2 6 Sudeste 11 Sudeste 0 -- -- 70
2020-09-03 09:00:00 14.8 5 Sudeste 10 Sudeste 0 -- -- 80
2020-09-03 08:00:00 11.6 0 Calma 6 Sur 0 -- -- 89
2020-09-03 07:00:00 11 2 Sur 6 Oeste 0 -- -- 93
2020-09-03 06:00:00 10.8 0 Calma 7 Sur 0 -- -- 93
2020-09-03 05:00:00 11 0 Calma 6 Sur 0 -- -- 94
2020-09-03 04:00:00 11.6 0 Calma 6 Noroeste 0 -- -- 93
2020-09-03 03:00:00 12.3 0 Calma 16 Sur 0 -- -- 91
2020-09-03 02:00:00 13.2 11 Sur 22 Sur 0 -- -- 92
2020-09-03 01:00:00 13.3 11 Sur 20 Sudoeste 0 -- -- 92
2020-09-03 00:00:00 13.4 9 Sur 15 Sur 0 -- -- 92
2020-09-02 23:00:00 13.6 10 Sur 18 Sur 0 -- -- 88
2020-09-02 22:00:00 14.8 12 Sur 22 Sur 0 -- -- 83
2020-09-02 21:00:00 16.8 10 Sur 15 Sur 0 -- -- 65
2020-09-02 20:00:00 20.1 10 Este 19 Este 0 -- -- 35
2020-09-02 19:00:00 21.5 6 Este 19 Sudeste 0 -- -- 34
2020-09-02 18:00:00 22.1 9 Este 18 Nordeste 0 -- -- 33
2020-09-02 17:00:00 22 5 Noroeste 32 Oeste 0 -- -- 33
2020-09-02 16:00:00 22.5 9 Sur 31 Sudeste 0 -- -- 33
2020-09-02 15:00:00 21.6 9 Este 26 Sudeste 0 -- -- 35
2020-09-02 14:00:00 20.2 13 Sudeste 25 Sudeste 0 -- -- 37
2020-09-02 13:00:00 19.4 13 Sudeste 25 Sudeste 0 -- -- 39
2020-09-02 12:00:00 18 11 Sudeste 22 Sudeste 0 -- -- 41
2020-09-02 11:00:00 15.9 5 Nordeste 12 Este 0 -- -- 46
2020-09-02 10:00:00 14.1 4 Nordeste 10 Nordeste 0 -- -- 49
2020-09-02 09:00:00 11.9 8 Norte 13 Noroeste 0 -- -- 54
2020-09-02 08:00:00 10.4 6 Noroeste 11 Noroeste 0 -- -- 56
2020-09-02 07:00:00 9.7 7 Noroeste 11 Noroeste 0 -- -- 56
2020-09-02 06:00:00 9.9 10 Oeste 12 Oeste 0 -- -- 56
2020-09-02 05:00:00 10.7 9 Noroeste 17 Noroeste 0 -- -- 53
2020-09-02 04:00:00 10.7 13 Noroeste 16 Oeste 0 -- -- 54
2020-09-02 03:00:00 11.3 10 Noroeste 14 Noroeste 0 -- -- 55
2020-09-02 02:00:00 13.1 7 Noroeste 12 Oeste 0 -- -- 50
2020-09-02 01:00:00 13.2 8 Noroeste 11 Noroeste 0 -- -- 54
2020-09-02 00:00:00 14 4 Noroeste 6 Norte 0 -- -- 59
2020-09-01 23:00:00 15.4 3 Norte 14 Norte 0 -- -- 45
2020-09-01 22:00:00 16.2 7 Norte 17 Norte 0 -- -- 40
2020-09-01 21:00:00 17 7 Norte 21 Norte 0 -- -- 34
2020-09-01 20:00:00 18.3 8 Norte 22 Nordeste 0 -- -- 31
2020-09-01 19:00:00 19.2 11 Sur 21 Sur 0 -- -- 34
2020-09-01 18:00:00 19.7 8 Sudoeste 24 Sur 0 -- -- 35
2020-09-01 17:00:00 20.6 14 Sudeste 23 Este 0 -- -- 30
2020-09-01 16:00:00 21.2 13 Este 26 Sudeste 0 -- -- 27
2020-09-01 15:00:00 20.9 7 Sudeste 17 Sudeste 0 -- -- 26
2020-09-01 14:00:00 20.9 6 Nordeste 14 Nordeste 0 -- -- 24
2020-09-01 13:00:00 19.9 6 Este 19 Sudeste 0 -- -- 26
2020-09-01 12:00:00 17.7 8 Norte 19 Noroeste 0 -- -- 29
2020-09-01 11:00:00 16.8 6 Norte 15 Noroeste 0 -- -- 33
2020-09-01 10:00:00 16.3 6 Noroeste 10 Noroeste 0 -- -- 35
2020-09-01 09:00:00 14.5 5 Sudoeste 11 Oeste 0 -- -- 42
2020-09-01 08:00:00 13.8 10 Sudoeste 13 Sudoeste 0 -- -- 42
2020-09-01 07:00:00 13.1 10 Sudoeste 14 Sudoeste 0 -- -- 46
2020-09-01 06:00:00 10.5 0 Calma 7 Sur 0 -- -- 78
2020-09-01 05:00:00 12 9 Sur 29 Sudoeste 0 -- -- 72
2020-09-01 04:00:00 11.1 3 Sur 8 Sudoeste 0 -- -- 72
2020-09-01 03:00:00 11.3 0 Calma 23 Oeste 0 -- -- 61
2020-09-01 02:00:00 12.2 7 Sur 20 Sudoeste 0 -- -- 55
2020-09-01 01:00:00 11.9 12 Sur 15 Oeste 0 -- -- 58
2020-09-01 00:00:00 14.6 12 Oeste 15 Oeste 0 -- -- 32
2020-08-31 23:00:00 15.1 9 Oeste 13 Oeste 0 -- -- 31
2020-08-31 22:00:00 16.1 4 Oeste 18 Oeste 0 -- -- 30
2020-08-31 21:00:00 16.9 9 Noroeste 16 Oeste 0 -- -- 31
2020-08-31 20:00:00 19.7 14 Noroeste 22 Oeste 0 -- -- 24
2020-08-31 19:00:00 21.6 10 Sudoeste 23 Oeste 0 -- -- 21
2020-08-31 18:00:00 22.3 8 Sudoeste 26 Oeste 0 -- -- 22
2020-08-31 17:00:00 21.8 6 Sur 23 Oeste 0 -- -- 27
2020-08-31 16:00:00 21.6 7 Sudoeste 28 Sur 0 -- -- 26
2020-08-31 15:00:00 20.5 15 Sur 29 Sur 0 -- -- 30
2020-08-31 14:00:00 18.9 17 Sudeste 28 Sudeste 0 -- -- 35
2020-08-31 13:00:00 18.5 10 Sudeste 21 Sur 0 -- -- 36
2020-08-31 12:00:00 16.1 7 Norte 24 Noroeste 0 -- -- 34
2020-08-31 11:00:00 14 14 Noroeste 29 Oeste 0 -- -- 41
2020-08-31 10:00:00 11.2 8 Sudeste 15 Sudeste 0 -- -- 59
2020-08-31 09:00:00 9.3 2 Este 6 Noroeste 0 -- -- 63
2020-08-31 08:00:00 6.5 5 Noroeste 10 Noroeste 0 -- -- 74
2020-08-31 07:00:00 6.1 8 Noroeste 16 Oeste 0 -- -- 74
2020-08-31 06:00:00 6.5 11 Noroeste 15 Noroeste 0 -- -- 76
2020-08-31 05:00:00 6.2 12 Noroeste 18 Noroeste 0 -- -- 80
2020-08-31 04:00:00 6.3 12 Noroeste 18 Noroeste 0 -- -- 81
2020-08-31 03:00:00 6.5 14 Noroeste 18 Noroeste 0 -- -- 82
2020-08-31 02:00:00 6.7 12 Noroeste 19 Noroeste 0 -- -- 82
2020-08-31 01:00:00 7.3 13 Noroeste 19 Noroeste 0 -- -- 76
2020-08-31 00:00:00 8.3 14 Noroeste 23 Noroeste 0 -- -- 70
2020-08-30 23:00:00 9.7 14 Norte 26 Norte 0 -- -- 64
2020-08-30 22:00:00 10.8 12 Norte 24 Norte 0 -- -- 58
2020-08-30 21:00:00 12.3 18 Norte 28 Norte 0 -- -- 46
2020-08-30 20:00:00 14 9 Norte 18 Nordeste 0 -- -- 35
2020-08-30 19:00:00 15.2 10 Nordeste 21 Nordeste 0 -- -- 34
2020-08-30 18:00:00 15.7 10 Nordeste 23 Norte 0 -- -- 34
2020-08-30 17:00:00 16.2 14 Nordeste 33 Este 0 -- -- 35
2020-08-30 16:00:00 15.2 10 Nordeste 32 Este 0 -- -- 37
2020-08-30 15:00:00 14.6 12 Norte 27 Norte 0 -- -- 40
2020-08-30 14:00:00 14.1 10 Nordeste 24 Nordeste 0 -- -- 44
2020-08-30 13:00:00 13.5 10 Norte 28 Este 0 -- -- 44
2020-08-30 12:00:00 12 14 Norte 33 Norte 0 -- -- 52
2020-08-30 11:00:00 10.2 22 Norte 32 Noroeste 0 -- -- 57
2020-08-30 10:00:00 8.2 19 Norte 29 Norte 0 -- -- 69
2020-08-30 09:00:00 6.9 21 Noroeste 29 Noroeste 0 -- -- 71
2020-08-30 08:00:00 5.1 17 Noroeste 22 Noroeste 0 -- -- 77
2020-08-30 07:00:00 4.9 14 Noroeste 22 Noroeste 0 -- -- 78
2020-08-30 06:00:00 4.4 10 Noroeste 22 Noroeste 0 -- -- 83
2020-08-30 05:00:00 6.1 19 Noroeste 30 Noroeste 0 -- -- 80
2020-08-30 04:00:00 6.5 20 Noroeste 33 Noroeste 0 -- -- 83
2020-08-30 03:00:00 7 24 Noroeste 37 Norte 0 -- -- 79
2020-08-30 02:00:00 7.6 24 Noroeste 35 Noroeste 0 -- -- 78
2020-08-30 01:00:00 8.2 19 Noroeste 35 Norte 0 -- -- 73
2020-08-30 00:00:00 8.8 19 Norte 33 Noroeste 0 -- -- 68
2020-08-29 23:00:00 9.8 21 Norte 32 Noroeste 0 -- -- 59
2020-08-29 22:00:00 10.7 18 Norte 35 Norte 0 -- -- 59
2020-08-29 21:00:00 12.4 27 Norte 38 Norte 0 -- -- 53
2020-08-29 20:00:00 14.6 27 Norte 45 Noroeste 0 -- -- 41
2020-08-29 19:00:00 16.7 28 Noroeste 41 Noroeste 0 -- -- 35
2020-08-29 18:00:00 16.9 19 Norte 34 Norte 0 -- -- 34
2020-08-29 17:00:00 17.7 20 Noroeste 28 Noroeste 0 -- -- 31
2020-08-29 16:00:00 16.5 9 Este 23 Noroeste 0 -- -- 42
2020-08-29 15:00:00 13.1 24 Noroeste 37 Noroeste 0 -- -- 61
2020-08-29 14:00:00 13.9 8 Nordeste 26 Norte 0 -- -- 52
2020-08-29 13:00:00 14.8 15 Norte 26 Norte 0 -- -- 53
2020-08-29 12:00:00 13.8 12 Norte 23 Nordeste 0 -- -- 55
2020-08-29 11:00:00 11.5 12 Norte 22 Norte 0 -- -- 60
2020-08-29 10:00:00 10.6 14 Norte 20 Norte 0 -- -- 61
2020-08-29 09:00:00 9.4 13 Noroeste 23 Noroeste 0 -- -- 73
2020-08-29 08:00:00 9 16 Noroeste 24 Noroeste 0 -- -- 78
2020-08-29 07:00:00 8.7 17 Noroeste 24 Norte 0 -- -- 81
2020-08-29 06:00:00 8.9 16 Norte 34 Norte 0 -- -- 87
2020-08-29 05:00:00 9.9 14 Norte 21 Norte 0 -- -- 89
2020-08-29 04:00:00 10.5 14 Norte 23 Norte 0 -- -- 87
2020-08-29 03:00:00 11.3 12 Norte 17 Noroeste 0 -- -- 86
2020-08-29 02:00:00 11.4 10 Norte 13 Norte 0 -- -- 89
2020-08-29 01:00:00 12.8 6 Noroeste 13 Noroeste 0 -- -- 86
2020-08-29 00:00:00 14.3 5 Norte 13 Noroeste 0 -- -- 81
2020-08-28 23:00:00 16.4 4 Noroeste 10 Noroeste 0 -- -- 79
2020-08-28 22:00:00 17.9 8 Noroeste 15 Norte 0 -- -- 74
2020-08-28 21:00:00 19.8 10 Norte 19 Norte 0 -- -- 63
2020-08-28 20:00:00 23.2 13 Norte 28 Oeste 0 -- -- 47
2020-08-28 19:00:00 25.7 13 Oeste 43 Noroeste 0 -- -- 33
2020-08-28 18:00:00 27 23 Noroeste 39 Noroeste 0 -- -- 29
2020-08-28 17:00:00 26.5 19 Noroeste 36 Oeste 0 -- -- 32
2020-08-28 16:00:00 27 9 Noroeste 27 Norte 0 -- -- 39
2020-08-28 15:00:00 25 14 Norte 35 Sur 0 -- -- 47
2020-08-28 14:00:00 27.6 21 Sudeste 35 Sudeste 0 -- -- 35
2020-08-28 13:00:00 26.2 18 Sudeste 29 Sudeste 0 -- -- 41
2020-08-28 12:00:00 24.3 15 Sudeste 23 Sudeste 0 -- -- 48
2020-08-28 11:00:00 23.8 8 Sudeste 24 Sur 0 -- -- 45
2020-08-28 10:00:00 21.5 12 Sudeste 18 Sudeste 0 -- -- 57
2020-08-28 09:00:00 19.9 8 Sudeste 27 Sur 0 -- -- 60
2020-08-28 08:00:00 18.5 17 Sur 23 Sur 0 -- -- 60
2020-08-28 07:00:00 18.6 3 Sudoeste 8 Noroeste 0 -- -- 51
2020-08-28 06:00:00 19 2 Sur 15 Sudoeste 0 -- -- 55
2020-08-28 05:00:00 21.9 13 Sudoeste 24 Oeste 0 -- -- 45
2020-08-28 04:00:00 22.6 19 Oeste 28 Sudoeste 0 -- -- 41
2020-08-28 03:00:00 22.9 17 Sudoeste 31 Sudoeste 0 -- -- 39
2020-08-28 02:00:00 22.5 18 Sudoeste 34 Sudoeste 0 -- -- 44
2020-08-28 01:00:00 21.4 12 Sudoeste 29 Sur 0 -- -- 49
2020-08-28 00:00:00 20.9 18 Sur 27 Sur 0 -- -- 50
2020-08-27 23:00:00 23.8 8 Oeste 17 Oeste 0 -- -- 30
2020-08-27 22:00:00 24.3 12 Noroeste 27 Oeste 0 -- -- 28
2020-08-27 21:00:00 26.4 19 Oeste 37 Oeste 0 -- -- 24
2020-08-27 20:00:00 27.9 17 Noroeste 33 Noroeste 0 -- -- 21
2020-08-27 19:00:00 30 17 Oeste 32 Oeste 0 -- -- 17
2020-08-27 18:00:00 30.8 18 Oeste 36 Oeste 0 -- -- 17
2020-08-27 17:00:00 31.4 21 Noroeste 29 Oeste 0 -- -- 18
2020-08-27 16:00:00 31.2 19 Noroeste 33 Noroeste 0 -- -- 19
2020-08-27 15:00:00 30.6 10 Norte 30 Noroeste 0 -- -- 20
2020-08-27 14:00:00 30.1 10 Norte 30 Noroeste 0 -- -- 20
2020-08-27 13:00:00 29.1 8 Sudoeste 32 Noroeste 0 -- -- 22
2020-08-27 12:00:00 27.9 9 Noroeste 28 Oeste 0 -- -- 24
2020-08-27 11:00:00 27.1 13 Oeste 28 Oeste 0 -- -- 25
2020-08-27 10:00:00 26.6 10 Oeste 22 Sudoeste 0 -- -- 27
2020-08-27 09:00:00 25.3 6 Oeste 24 Oeste 0 -- -- 29
2020-08-27 08:00:00 22.7 8 Sudoeste 19 Sudoeste 0 -- -- 34
2020-08-27 07:00:00 22.3 15 Oeste 20 Sudoeste 0 -- -- 34
2020-08-27 06:00:00 21.2 6 Sudoeste 15 Sudoeste 0 -- -- 38
2020-08-27 05:00:00 19.9 0 Calma 7 Norte 0 -- -- 59
2020-08-27 04:00:00 21.6 3 Sudeste 29 Sudoeste 0 -- -- 51
2020-08-27 03:00:00 22.2 19 Sudoeste 34 Sudoeste 0 -- -- 50
2020-08-27 02:00:00 22.3 20 Sudoeste 30 Sudoeste 0 -- -- 53
2020-08-27 01:00:00 22.6 16 Sudoeste 28 Oeste 0 -- -- 55
2020-08-27 00:00:00 21.6 10 Sur 13 Sudeste 0 -- -- 51
2020-08-26 23:00:00 22.5 5 Sudeste 10 Sur 0 -- -- 59
2020-08-26 22:00:00 24.7 5 Sur 14 Oeste 0 -- -- 42
2020-08-26 21:00:00 26.8 9 Oeste 19 Oeste 0 -- -- 27
2020-08-26 20:00:00 29.1 10 Oeste 25 Oeste 0 -- -- 25
2020-08-26 19:00:00 30.7 13 Oeste 27 Oeste 0 -- -- 23
2020-08-26 18:00:00 31.7 9 Oeste 25 Sudoeste 0 -- -- 22
2020-08-26 17:00:00 31.6 15 Oeste 30 Oeste 0 -- -- 22
2020-08-26 16:00:00 31.1 14 Oeste 33 Sur 0 -- -- 25
2020-08-26 15:00:00 30.7 6 Sur 28 Sudeste 0 -- -- 27
2020-08-26 14:00:00 30.5 12 Sur 26 Sur 0 -- -- 27
2020-08-26 13:00:00 29.3 10 Oeste 34 Sur 0 -- -- 29
2020-08-26 12:00:00 28.8 13 Sur 27 Sur 0 -- -- 31
2020-08-26 11:00:00 27.8 13 Sur 22 Sur 0 -- -- 34
2020-08-26 10:00:00 26.2 10 Sudeste 18 Sudoeste 0 -- -- 41
2020-08-26 09:00:00 25.5 6 Sudoeste 19 Sudoeste 0 -- -- 32
2020-08-26 08:00:00 23.3 15 Oeste 22 Oeste 0 -- -- 35
2020-08-26 07:00:00 22.4 18 Oeste 28 Sudoeste 0 -- -- 43
2020-08-26 06:00:00 22.6 17 Sudoeste 31 Oeste 0 -- -- 50
2020-08-26 05:00:00 22.1 18 Sudoeste 32 Sudoeste 0 -- -- 54
2020-08-26 04:00:00 21.7 21 Oeste 31 Sudoeste 0 -- -- 55
2020-08-26 03:00:00 21.8 17 Sudoeste 29 Sudoeste 0 -- -- 56
2020-08-26 02:00:00 21.8 12 Sudoeste 32 Sudoeste 0 -- -- 58
2020-08-26 01:00:00 21.5 14 Sudoeste 27 Sudoeste 0 -- -- 57
2020-08-26 00:00:00 19.5 11 Sudeste 16 Sur 0 -- -- 66
2020-08-25 23:00:00 21.4 6 Sudeste 9 Sur 0 -- -- 56
2020-08-25 22:00:00 24.7 8 Sur 26 Oeste 0 -- -- 37
2020-08-25 21:00:00 26.5 17 Oeste 28 Oeste 0 -- -- 26
2020-08-25 20:00:00 28.4 13 Oeste 24 Sudoeste 0 -- -- 24
2020-08-25 19:00:00 30.3 12 Oeste 22 Oeste 0 -- -- 23
2020-08-25 18:00:00 30.8 8 Oeste 27 Sudoeste 0 -- -- 21
2020-08-25 17:00:00 31.2 7 Oeste 28 Oeste 0 -- -- 21
2020-08-25 16:00:00 30.4 14 Oeste 30 Noroeste 0 -- -- 23
2020-08-25 15:00:00 29.7 9 Nordeste 26 Noroeste 0 -- -- 28
2020-08-25 14:00:00 28.6 5 Norte 29 Noroeste 0 -- -- 30
2020-08-25 13:00:00 28.1 6 Noroeste 25 Oeste 0 -- -- 31
2020-08-25 12:00:00 26.7 10 Noroeste 24 Noroeste 0 -- -- 37
2020-08-25 11:00:00 25.5 9 Oeste 22 Sudoeste 0 -- -- 36
2020-08-25 10:00:00 24 12 Oeste 24 Oeste 0 -- -- 43
2020-08-25 09:00:00 22 9 Oeste 21 Oeste 0 -- -- 57
2020-08-25 08:00:00 19.4 7 Sudoeste 22 Sudoeste 0 -- -- 70
2020-08-25 07:00:00 19.2 11 Sudoeste 28 Sudoeste 0 -- -- 74
2020-08-25 06:00:00 19.3 17 Sudoeste 30 Sudoeste 0 -- -- 69
2020-08-25 05:00:00 18.9 13 Sudoeste 28 Oeste 0 -- -- 72
2020-08-25 04:00:00 17.7 18 Sudoeste 33 Sudoeste 0 -- -- 86
2020-08-25 03:00:00 18 20 Sudoeste 34 Oeste 0 -- -- 86
2020-08-25 02:00:00 18.3 20 Sudoeste 33 Sudoeste 0 -- -- 86
2020-08-25 01:00:00 18.4 13 Sudoeste 27 Sudoeste 0 -- -- 87
2020-08-25 00:00:00 18.3 9 Sudoeste 21 Sur 0 -- -- 86
2020-08-24 23:00:00 19 6 Sur 15 Sudeste 0 -- -- 82
2020-08-24 22:00:00 21.2 7 Sur 17 Sur 0 -- -- 71
2020-08-24 21:00:00 22.3 11 Sur 18 Oeste 0 -- -- 66
2020-08-24 20:00:00 25.3 10 Oeste 25 Sudoeste 0 -- -- 39
2020-08-24 19:00:00 26.7 9 Sudoeste 31 Oeste 0 -- -- 38
2020-08-24 18:00:00 27.4 13 Oeste 30 Sudoeste 0 -- -- 35
2020-08-24 17:00:00 27.2 13 Oeste 28 Oeste 0 -- -- 37
2020-08-24 16:00:00 25.9 13 Sudoeste 33 Sur 0 -- -- 41
2020-08-24 15:00:00 26.1 13 Sudoeste 32 Sudeste 0 -- -- 45
2020-08-24 14:00:00 23.6 20 Sudeste 37 Sudeste 0 -- -- 59
2020-08-24 13:00:00 22 18 Sudeste 29 Sudeste 0 -- -- 68
2020-08-24 12:00:00 21 17 Sudeste 25 Sudeste 0 -- -- 70
2020-08-24 11:00:00 18.6 12 Sudeste 17 Sudeste 0 -- -- 77
2020-08-24 10:00:00 17.1 6 Sudeste 9 Sudeste 0 -- -- 85
2020-08-24 09:00:00 16.5 6 Sudeste 12 Sudeste 0 -- -- 88
2020-08-24 08:00:00 16.5 0 Calma -- -- 0 -- -- 83
2020-08-24 07:00:00 16.8 0 Calma 5 Sudeste 0 -- -- 88
2020-08-24 06:00:00 17.2 4 Sudeste 10 Sur 0 -- -- 93
2020-08-24 05:00:00 17.3 5 Sudeste 9 Sudeste 0 -- -- 93
2020-08-24 04:00:00 17.5 5 Sudeste 10 Sudoeste 0 -- -- 92
2020-08-24 03:00:00 17.4 8 Sudeste 12 Sudeste 0 -- -- 93
2020-08-24 02:00:00 17.5 7 Sudeste 11 Sudeste 0 -- -- 91
2020-08-24 01:00:00 16.9 4 Oeste 13 Sur 0 -- -- 89
2020-08-24 00:00:00 17.9 6 Sur 13 Sur 0 -- -- 89
2020-08-23 23:00:00 18.2 9 Sur 12 Sur 0 -- -- 87
2020-08-23 22:00:00 20 2 Sudeste 7 Nordeste 0 -- -- 69
2020-08-23 21:00:00 20.2 3 Sur 20 Sudeste 0 -- -- 65
2020-08-23 20:00:00 23.2 10 Este 19 Sudeste 0 -- -- 55
2020-08-23 19:00:00 24.3 16 Sudeste 35 Sudeste 0 -- -- 57
2020-08-23 18:00:00 25.3 16 Sudeste 34 Este 0 -- -- 53
2020-08-23 17:00:00 26.2 20 Norte 36 Norte 0 -- -- 45
2020-08-23 16:00:00 25.4 12 Este 27 Sudeste 0 -- -- 48
2020-08-23 15:00:00 24.4 12 Sudeste 33 Sudeste 0 -- -- 55
2020-08-23 14:00:00 23.6 16 Sudeste 35 Sudeste 0 -- -- 58
2020-08-23 13:00:00 23 15 Sudeste 28 Sudeste 0 -- -- 61
2020-08-23 12:00:00 21.3 15 Sur 33 Sudeste 0 -- -- 67
2020-08-23 11:00:00 19.9 18 Sudeste 27 Sudeste 0 -- -- 69
2020-08-23 10:00:00 19 11 Sudeste 17 Sudeste 0 -- -- 71
2020-08-23 09:00:00 16.5 2 Norte 5 Norte 0 -- -- 79
2020-08-23 08:00:00 14.7 3 Noroeste 8 Noroeste 0 -- -- 84
2020-08-23 07:00:00 15.2 0 Calma -- -- 0 -- -- 88
2020-08-23 06:00:00 16 0 Calma -- -- 0 -- -- 91
2020-08-23 05:00:00 16.2 0 Calma 7 Sur 0 -- -- 88
2020-08-23 04:00:00 17.2 7 Sur 12 Sur 0 -- -- 87
2020-08-23 03:00:00 16.3 4 Noroeste 17 Sur 0 -- -- 87
2020-08-23 02:00:00 17.3 9 Sur 17 Sudoeste 0 -- -- 82
2020-08-23 01:00:00 17.8 6 Sur 12 Oeste 0 -- -- 82
2020-08-23 00:00:00 18.5 5 Oeste 11 Sudeste 0 -- -- 78
2020-08-22 23:00:00 20.2 5 Sur 12 Sur 0 -- -- 71
2020-08-22 22:00:00 21.7 7 Noroeste 21 Noroeste 0 -- -- 55
2020-08-22 21:00:00 23.8 13 Noroeste 23 Noroeste 0 -- -- 32
2020-08-22 20:00:00 26.4 10 Oeste 23 Noroeste 0 -- -- 32
2020-08-22 19:00:00 27.9 20 Noroeste 33 Noroeste 0 -- -- 28
2020-08-22 18:00:00 28.6 20 Noroeste 32 Sudoeste 0 -- -- 29
2020-08-22 17:00:00 28.8 15 Oeste 33 Oeste 0 -- -- 30
2020-08-22 16:00:00 28.6 12 Sudoeste 32 Sudoeste 0 -- -- 31
2020-08-22 15:00:00 28.2 9 Sudoeste 30 Oeste 0 -- -- 33
2020-08-22 14:00:00 27.6 11 Sudoeste 29 Oeste 0 -- -- 34
2020-08-22 13:00:00 26.6 8 Sudoeste 32 Noroeste 0 -- -- 39
2020-08-22 12:00:00 25.3 14 Oeste 28 Noroeste 0 -- -- 42
2020-08-22 11:00:00 23.5 11 Noroeste 21 Noroeste 0 -- -- 49
2020-08-22 10:00:00 21.4 4 Este 8 Nordeste 0 -- -- 59
2020-08-22 09:00:00 19 4 Nordeste 8 Este 0 -- -- 64
2020-08-22 08:00:00 17 2 Noroeste 6 Oeste 0 -- -- 72
2020-08-22 07:00:00 16.8 2 Noroeste 8 Noroeste 0 -- -- 72
2020-08-22 06:00:00 16.6 4 Noroeste 11 Noroeste 0 -- -- 76
2020-08-22 05:00:00 16.7 6 Noroeste 14 Norte 0 -- -- 74
2020-08-22 04:00:00 17.3 6 Noroeste 13 Oeste 0 -- -- 66
2020-08-22 03:00:00 19.8 12 Oeste 16 Oeste 0 -- -- 55
2020-08-22 02:00:00 20.5 12 Oeste 19 Oeste 0 -- -- 53
2020-08-22 01:00:00 21.6 16 Noroeste 23 Oeste 0 -- -- 47
2020-08-22 00:00:00 22.4 13 Oeste 27 Oeste 0 -- -- 37
2020-08-21 23:00:00 23.3 14 Oeste 22 Oeste 0 -- -- 32
2020-08-21 22:00:00 23.2 3 Oeste 16 Sur 0 -- -- 33
2020-08-21 21:00:00 24.7 8 Oeste 26 Sudoeste 0 -- -- 29
2020-08-21 20:00:00 27 11 Oeste 32 Sudoeste 0 -- -- 25
2020-08-21 19:00:00 28.5 10 Sudoeste 32 Sudoeste 0 -- -- 21
2020-08-21 18:00:00 28.7 12 Oeste 30 Noroeste 0 -- -- 22
2020-08-21 17:00:00 29.3 15 Sudoeste 39 Oeste 0 -- -- 20
2020-08-21 16:00:00 29 20 Oeste 44 Sudoeste 0 -- -- 19
2020-08-21 15:00:00 29 18 Oeste 38 Oeste 0 -- -- 19
2020-08-21 14:00:00 28.4 16 Oeste 31 Oeste 0 -- -- 19
2020-08-21 13:00:00 28.6 8 Sudoeste 29 Sudoeste 0 -- -- 20
2020-08-21 12:00:00 27.1 14 Oeste 29 Sudoeste 0 -- -- 20
2020-08-21 11:00:00 25.7 10 Oeste 39 Oeste 0 -- -- 27
2020-08-21 10:00:00 24.2 6 Sudeste 21 Oeste 0 -- -- 29
2020-08-21 09:00:00 23 6 Sudoeste 25 Oeste 0 -- -- 27
2020-08-21 08:00:00 19.8 3 Sudeste 14 Oeste 0 -- -- 31
2020-08-21 07:00:00 17.8 3 Noroeste 12 Sur 0 -- -- 40
2020-08-21 06:00:00 19.5 6 Oeste 19 Oeste 0 -- -- 41
2020-08-21 05:00:00 19.4 15 Oeste 31 Oeste 0 -- -- 54
2020-08-21 04:00:00 20.2 15 Sudoeste 36 Sudoeste 0 -- -- 55
2020-08-21 03:00:00 18.4 10 Sur 17 Sur 0 -- -- 58
2020-08-21 02:00:00 17.9 12 Sur 23 Sur 0 -- -- 52
2020-08-21 01:00:00 18.8 14 Sur 25 Sur 0 -- -- 45
2020-08-21 00:00:00 19.7 14 Sur 27 Sur 0 -- -- 39